createdAt,value
2019-02-09T00:02:06.829Z,6.97
2019-02-09T00:04:37.619Z,6.97
2019-02-09T00:07:07.304Z,7.03
2019-02-09T00:09:37.001Z,5.57
2019-02-09T00:12:06.658Z,5.63
2019-02-09T00:14:36.317Z,6.07
2019-02-09T00:17:06.082Z,9.03
2019-02-09T00:19:35.881Z,5.73
2019-02-09T00:22:05.979Z,9.83
2019-02-09T00:24:35.721Z,6.10
2019-02-09T00:27:05.413Z,5.30
2019-02-09T00:29:35.051Z,9.60
2019-02-09T00:32:04.951Z,6.63
2019-02-09T00:34:34.582Z,4.30
2019-02-09T00:37:05.073Z,7.15
2019-02-09T00:39:34.711Z,7.17
2019-02-09T00:42:05.140Z,5.73
2019-02-09T00:44:34.930Z,4.63
2019-02-09T00:47:04.971Z,9.37
2019-02-09T00:49:34.768Z,8.30
2019-02-09T00:52:04.970Z,5.60
2019-02-09T00:54:34.597Z,8.23
2019-02-09T00:57:04.968Z,7.00
2019-02-09T00:59:34.642Z,12.27
2019-02-09T01:02:05.243Z,6.97
2019-02-09T01:04:34.941Z,5.23
2019-02-09T01:07:04.876Z,7.23
2019-02-09T01:09:34.614Z,6.60
2019-02-09T01:12:04.917Z,5.73
2019-02-09T01:14:34.533Z,7.77
2019-02-09T01:17:05.003Z,7.70
2019-02-09T01:19:34.769Z,6.40
2019-02-09T01:22:04.967Z,5.20
2019-02-09T01:24:34.689Z,6.43
2019-02-09T01:27:04.967Z,7.67
2019-02-09T01:29:35.565Z,6.70
2019-02-09T01:32:05.434Z,5.77
2019-02-09T01:34:35.077Z,6.07
2019-02-09T01:37:05.377Z,7.70
2019-02-09T01:39:35.095Z,6.97
2019-02-09T01:42:05.286Z,4.60
2019-02-09T01:44:34.954Z,10.63
2019-02-09T01:47:04.854Z,7.83
2019-02-09T01:49:34.773Z,8.23
2019-02-09T01:52:05.098Z,8.23
2019-02-09T01:54:34.733Z,5.97
2019-02-09T01:57:04.909Z,7.03
2019-02-09T01:59:34.539Z,7.23
2019-02-09T02:02:05.216Z,7.33
2019-02-09T02:04:34.884Z,6.33
2019-02-09T02:07:05.325Z,6.25
2019-02-09T02:09:35.019Z,5.93
2019-02-09T02:12:05.619Z,5.97
2019-02-09T02:14:35.437Z,6.20
2019-02-09T02:17:05.186Z,5.47
2019-02-09T02:19:34.973Z,6.03
2019-02-09T02:22:05.069Z,8.70
2019-02-09T02:24:34.717Z,6.23
2019-02-09T02:27:05.169Z,9.60
2019-02-09T02:29:34.922Z,12.43
2019-02-09T02:32:05.066Z,6.50
2019-02-09T02:34:34.776Z,6.63
2019-02-09T02:37:04.947Z,6.10
2019-02-09T02:39:34.989Z,10.60
2019-02-09T02:42:04.895Z,6.70
2019-02-09T02:44:34.517Z,11.77
2019-02-09T02:47:05.077Z,9.37
2019-02-09T02:49:34.854Z,4.70
2019-02-09T02:52:04.902Z,6.90
2019-02-09T02:54:34.618Z,8.40
2019-02-09T02:57:04.897Z,5.37
2019-02-09T02:59:34.523Z,8.13
2019-02-09T03:02:05.535Z,6.47
2019-02-09T03:04:35.483Z,6.23
2019-02-09T03:07:05.314Z,6.33
2019-02-09T03:09:35.140Z,8.17
2019-02-09T03:12:05.043Z,6.20
2019-02-09T03:14:34.800Z,5.40
2019-02-09T03:17:04.855Z,7.37
2019-02-09T03:19:34.453Z,6.23
2019-02-09T03:22:04.907Z,5.47
2019-02-09T03:24:35.536Z,9.20
2019-02-09T03:27:05.342Z,7.80
2019-02-09T03:29:35.183Z,6.87
2019-02-09T03:32:05.056Z,7.50
2019-02-09T03:34:34.702Z,6.50
2019-02-09T03:37:04.874Z,7.47
2019-02-09T03:39:34.537Z,7.03
2019-02-09T03:42:04.992Z,9.80
2019-02-09T03:44:34.742Z,8.10
2019-02-09T03:47:05.249Z,6.43
2019-02-09T03:49:34.894Z,8.97
2019-02-09T03:52:04.954Z,6.23
2019-02-09T03:54:34.582Z,9.47
2019-02-09T03:57:04.915Z,7.97
2019-02-09T03:59:34.524Z,8.73
2019-02-09T04:02:04.992Z,5.77
2019-02-09T04:04:34.683Z,10.83
2019-02-09T04:07:05.343Z,8.63
2019-02-09T04:09:35.207Z,7.47
2019-02-09T04:12:04.982Z,4.90
2019-02-09T04:14:34.649Z,9.57
2019-02-09T04:17:05.031Z,7.60
2019-02-09T04:19:34.742Z,8.60
2019-02-09T04:22:04.882Z,8.30
2019-02-09T04:24:34.479Z,6.53
2019-02-09T04:27:04.909Z,9.80
2019-02-09T04:29:34.518Z,9.03
2019-02-09T04:32:04.937Z,9.77
2019-02-09T04:34:34.567Z,9.43
2019-02-09T04:37:04.983Z,7.45
2019-02-09T04:39:34.591Z,10.07
2019-02-09T04:42:05.011Z,9.53
2019-02-09T04:44:34.626Z,6.03
2019-02-09T04:47:04.932Z,8.83
2019-02-09T04:49:34.660Z,7.43
2019-02-09T04:52:04.889Z,7.37
2019-02-09T04:54:34.586Z,11.37
2019-02-09T04:57:05.018Z,8.53
2019-02-09T04:59:34.685Z,5.40
2019-02-09T05:02:05.103Z,8.90
2019-02-09T05:04:34.971Z,10.07
2019-02-09T05:07:04.853Z,8.27
2019-02-09T05:09:34.490Z,6.90
2019-02-09T05:12:05.280Z,7.67
2019-02-09T05:14:34.960Z,7.00
2019-02-09T05:17:04.887Z,7.05
2019-02-09T05:19:34.665Z,6.07
2019-02-09T05:22:05.184Z,5.53
2019-02-09T05:24:34.897Z,8.83
2019-02-09T05:27:05.011Z,6.20
2019-02-09T05:29:34.637Z,5.23
2019-02-09T05:32:04.897Z,9.83
2019-02-09T05:34:34.577Z,6.07
2019-02-09T05:37:04.863Z,7.93
2019-02-09T05:39:34.502Z,5.17
2019-02-09T05:42:04.932Z,5.13
2019-02-09T05:44:34.650Z,5.90
2019-02-09T05:47:05.050Z,10.80
2019-02-09T05:49:34.783Z,11.60
2019-02-09T05:52:04.967Z,4.57
2019-02-09T05:54:35.808Z,9.50
2019-02-09T05:57:05.521Z,5.23
2019-02-09T05:59:35.191Z,4.77
2019-02-09T06:02:04.923Z,6.00
2019-02-09T06:04:34.581Z,7.23
2019-02-09T06:07:05.070Z,8.07
2019-02-09T06:09:35.851Z,6.17
2019-02-09T06:12:05.542Z,5.50
2019-02-09T06:14:35.186Z,6.60
2019-02-09T06:17:04.851Z,5.87
2019-02-09T06:19:34.486Z,6.93
2019-02-09T06:22:04.965Z,10.07
2019-02-09T06:24:34.618Z,9.13
2019-02-09T06:27:04.984Z,8.17
2019-02-09T06:29:34.778Z,8.47
2019-02-09T06:32:04.930Z,6.00
2019-02-09T06:34:34.629Z,9.63
2019-02-09T06:37:04.829Z,5.93
2019-02-09T06:39:34.502Z,7.03
2019-02-09T06:42:04.894Z,8.60
2019-02-09T06:44:34.526Z,4.10
2019-02-09T06:47:04.838Z,4.00
2019-02-09T06:49:34.467Z,4.17
2019-02-09T06:52:04.986Z,5.00
2019-02-09T06:54:34.618Z,4.53
2019-02-09T06:57:05.006Z,7.70
2019-02-09T06:59:34.661Z,2.83
2019-02-09T07:02:05.275Z,6.63
2019-02-09T07:04:34.895Z,3.53
2019-02-09T07:07:05.236Z,3.17
2019-02-09T07:09:35.146Z,6.63
2019-02-09T07:12:05.142Z,6.13
2019-02-09T07:14:34.878Z,6.27
2019-02-09T07:17:05.313Z,5.80
2019-02-09T07:19:34.983Z,11.27
2019-02-09T07:22:05.104Z,3.60
2019-02-09T07:24:34.713Z,6.40
2019-02-09T07:27:05.093Z,6.37
2019-02-09T07:29:34.739Z,5.23
2019-02-09T07:32:05.139Z,2.93
2019-02-09T07:34:34.779Z,4.90
2019-02-09T07:37:04.899Z,7.13
2019-02-09T07:39:34.499Z,5.13
2019-02-09T07:42:05.037Z,8.97
2019-02-09T07:44:34.745Z,8.57
2019-02-09T07:47:04.934Z,8.63
2019-02-09T07:49:34.651Z,7.20
2019-02-09T07:52:04.950Z,8.80
2019-02-09T07:54:34.729Z,11.70
2019-02-09T07:57:05.089Z,6.53
2019-02-09T07:59:34.785Z,6.50
2019-02-09T08:02:06.015Z,7.17
2019-02-09T08:04:35.791Z,6.20
2019-02-09T08:07:08.201Z,6.10
2019-02-09T08:09:38.142Z,4.83
2019-02-09T08:12:07.968Z,9.57
2019-02-09T08:14:37.916Z,8.60
2019-02-09T08:17:07.635Z,7.57
2019-02-09T08:19:37.327Z,7.20
2019-02-09T08:22:07.128Z,4.87
2019-02-09T08:24:36.754Z,5.87
2019-02-09T08:27:06.442Z,6.47
2019-02-09T08:29:40.878Z,6.80
2019-02-09T08:32:12.766Z,7.50
2019-02-09T08:34:41.906Z,8.93
2019-02-09T08:37:11.674Z,7.40
2019-02-09T08:39:41.476Z,5.97
2019-02-09T08:42:11.157Z,7.83
2019-02-09T08:44:40.857Z,5.90
2019-02-09T08:47:10.514Z,6.87
2019-02-09T08:49:40.279Z,8.40
2019-02-09T08:52:10.154Z,6.50
2019-02-09T08:54:39.822Z,7.13
2019-02-09T08:57:09.565Z,6.93
2019-02-09T08:59:39.242Z,8.93
2019-02-09T09:02:09.006Z,6.33
2019-02-09T09:04:38.761Z,8.83
2019-02-09T09:07:08.388Z,7.30
2019-02-09T09:09:38.077Z,11.47
2019-02-09T09:12:07.741Z,5.57
2019-02-09T09:14:37.470Z,8.93
2019-02-09T09:17:07.070Z,6.73
2019-02-09T09:19:36.838Z,8.30
2019-02-09T09:22:06.442Z,6.87
2019-02-09T09:24:36.233Z,8.33
2019-02-09T09:27:06.034Z,7.93
2019-02-09T09:29:35.670Z,4.73
2019-02-09T09:32:05.487Z,11.30
2019-02-09T09:34:35.212Z,9.03
2019-02-09T09:37:05.180Z,8.10
2019-02-09T09:39:34.819Z,8.37
2019-02-09T09:42:05.191Z,8.80
2019-02-09T09:44:34.850Z,7.20
2019-02-09T09:47:05.175Z,7.47
2019-02-09T09:49:34.769Z,10.20
2019-02-09T09:52:05.149Z,10.03
2019-02-09T09:54:34.922Z,10.50
2019-02-09T09:57:04.934Z,5.57
2019-02-09T09:59:34.538Z,8.63
2019-02-09T10:02:05.053Z,9.13
2019-02-09T10:04:34.670Z,6.43
2019-02-09T10:07:04.878Z,6.87
2019-02-09T10:09:34.601Z,7.03
2019-02-09T10:12:05.012Z,11.27
2019-02-09T10:14:34.754Z,6.30
2019-02-09T10:17:04.925Z,7.83
2019-02-09T10:19:34.600Z,7.07
2019-02-09T10:22:05.092Z,12.07
2019-02-09T10:24:34.890Z,7.60
2019-02-09T10:27:04.986Z,8.50
2019-02-09T10:29:34.626Z,4.27
2019-02-09T10:32:05.238Z,8.27
2019-02-09T10:34:34.895Z,4.77
2019-02-09T10:37:05.292Z,5.13
2019-02-09T10:39:34.914Z,8.03
2019-02-09T10:42:05.134Z,5.67
2019-02-09T10:44:34.738Z,9.30
2019-02-09T10:47:05.056Z,8.33
2019-02-09T10:49:34.667Z,5.67
2019-02-09T10:52:05.194Z,4.83
2019-02-09T10:54:35.045Z,12.23
2019-02-09T10:57:05.189Z,8.30
2019-02-09T10:59:35.980Z,7.33
2019-02-09T11:02:06.071Z,8.27
2019-02-09T11:04:35.912Z,15.03
2019-02-09T11:07:05.913Z,12.17
2019-02-09T11:09:35.715Z,7.10
2019-02-09T11:12:06.093Z,7.73
2019-02-09T11:14:36.032Z,15.97
2019-02-09T11:17:06.038Z,6.60
2019-02-09T11:19:35.954Z,5.90
2019-02-09T11:22:05.653Z,13.73
2019-02-09T11:24:35.340Z,9.67
2019-02-09T11:27:05.206Z,13.93
2019-02-09T11:29:34.822Z,12.17
2019-02-09T11:32:04.913Z,8.73
2019-02-09T11:34:34.679Z,11.20
2019-02-09T11:37:05.010Z,8.90
2019-02-09T11:39:34.614Z,7.37
2019-02-09T11:42:05.140Z,6.60
2019-02-09T11:44:41.000Z,7.37
2019-02-09T11:47:07.113Z,10.03
2019-02-09T11:49:36.743Z,10.90
2019-02-09T11:52:06.495Z,9.40
2019-02-09T11:54:36.201Z,12.50
2019-02-09T11:57:05.849Z,9.13
2019-02-09T11:59:35.468Z,7.73
2019-02-09T12:02:05.242Z,10.73
2019-02-09T12:04:34.893Z,9.90
2019-02-09T12:07:05.169Z,10.40
2019-02-09T12:09:34.838Z,7.67
2019-02-09T12:12:05.016Z,10.93
2019-02-09T12:14:34.733Z,8.17
2019-02-09T12:17:05.394Z,10.60
2019-02-09T12:19:35.118Z,8.47
2019-02-09T12:22:05.209Z,11.27
2019-02-09T12:24:34.825Z,13.07
2019-02-09T12:27:04.974Z,11.77
2019-02-09T12:29:34.670Z,13.40
2019-02-09T12:32:05.227Z,10.80
2019-02-09T12:34:34.913Z,10.50
2019-02-09T12:37:05.121Z,13.03
2019-02-09T12:39:34.743Z,9.57
2019-02-09T12:42:04.956Z,12.00
2019-02-09T12:44:34.558Z,14.47
2019-02-09T12:47:05.107Z,12.67
2019-02-09T12:49:34.806Z,10.80
2019-02-09T12:52:05.021Z,22.90
2019-02-09T12:54:34.757Z,13.03
2019-02-09T12:57:04.918Z,12.10
2019-02-09T12:59:34.635Z,15.73
2019-02-09T13:02:05.178Z,10.90
2019-02-09T13:04:34.790Z,12.93
2019-02-09T13:07:04.890Z,18.87
2019-02-09T13:09:34.621Z,13.10
2019-02-09T13:12:04.837Z,11.20
2019-02-09T13:14:34.543Z,12.37
2019-02-09T13:17:05.106Z,13.80
2019-02-09T13:19:34.806Z,17.33
2019-02-09T13:22:05.907Z,12.93
2019-02-09T13:24:35.569Z,14.27
2019-02-09T13:27:05.459Z,16.37
2019-02-09T13:29:35.078Z,15.70
2019-02-09T13:32:05.083Z,16.57
2019-02-09T13:34:34.723Z,12.70
2019-02-09T13:37:04.951Z,9.87
2019-02-09T13:39:34.617Z,13.27
2019-02-09T13:42:05.117Z,18.30
2019-02-09T13:44:34.770Z,11.20
2019-02-09T13:47:05.023Z,18.00
2019-02-09T13:49:34.766Z,16.30
2019-02-09T13:52:05.034Z,24.23
2019-02-09T13:54:34.829Z,19.43
2019-02-09T13:57:04.982Z,13.57
2019-02-09T13:59:34.663Z,16.23
2019-02-09T14:02:05.049Z,18.17
2019-02-09T14:04:34.721Z,14.17
2019-02-09T14:07:05.070Z,13.20
2019-02-09T14:09:34.733Z,14.80
2019-02-09T14:12:05.146Z,20.83
2019-02-09T14:14:34.742Z,16.80
2019-02-09T14:17:05.161Z,10.90
2019-02-09T14:19:34.796Z,15.10
2019-02-09T14:22:05.162Z,17.80
2019-02-09T14:24:34.814Z,16.87
2019-02-09T14:27:05.014Z,13.13
2019-02-09T14:29:34.740Z,15.63
2019-02-09T14:32:04.875Z,21.00
2019-02-09T14:34:34.694Z,13.57
2019-02-09T14:37:04.970Z,14.47
2019-02-09T14:39:34.725Z,13.50
2019-02-09T14:42:06.093Z,15.30
2019-02-09T14:44:35.789Z,12.63
2019-02-09T14:47:05.499Z,17.90
2019-02-09T14:49:35.224Z,22.20
2019-02-09T14:52:05.738Z,16.03
2019-02-09T14:54:35.457Z,19.93
2019-02-09T14:57:05.320Z,17.07
2019-02-09T14:59:34.950Z,17.50
2019-02-09T15:02:05.837Z,16.23
2019-02-09T15:04:35.506Z,10.37
2019-02-09T15:07:05.402Z,14.37
2019-02-09T15:09:35.017Z,14.77
2019-02-09T15:12:05.513Z,21.17
2019-02-09T15:14:35.166Z,15.40
2019-02-09T15:17:05.759Z,9.30
2019-02-09T15:19:37.948Z,13.37
2019-02-09T15:22:09.701Z,11.13
2019-02-09T15:24:39.525Z,16.70
2019-02-09T15:27:09.150Z,12.40
2019-02-09T15:29:38.870Z,12.40
2019-02-09T15:32:08.714Z,9.03
2019-02-09T15:34:38.781Z,8.97
2019-02-09T15:37:08.455Z,6.93
2019-02-09T15:39:38.117Z,11.33
2019-02-09T15:42:08.010Z,6.40
2019-02-09T15:44:37.649Z,10.40
2019-02-09T15:47:08.274Z,9.40
2019-02-09T15:49:37.978Z,11.70
2019-02-09T15:52:07.748Z,8.47
2019-02-09T15:54:37.411Z,6.43
2019-02-09T15:57:07.113Z,9.73
2019-02-09T15:59:36.890Z,11.10
2019-02-09T16:02:06.746Z,12.30
2019-02-09T16:04:36.414Z,9.17
2019-02-09T16:07:06.230Z,7.53
2019-02-09T16:09:35.882Z,10.53
2019-02-09T16:12:05.569Z,12.37
2019-02-09T16:14:35.390Z,13.50
2019-02-09T16:17:05.150Z,12.17
2019-02-09T16:19:34.892Z,13.43
2019-02-09T16:22:04.995Z,14.40
2019-02-09T16:24:34.657Z,13.63
2019-02-09T16:27:05.027Z,15.83
2019-02-09T16:29:34.689Z,9.47
2019-02-09T16:32:04.918Z,10.10
2019-02-09T16:34:34.593Z,13.00
2019-02-09T16:37:04.990Z,10.73
2019-02-09T16:39:34.675Z,14.07
2019-02-09T16:42:04.981Z,18.90
2019-02-09T16:44:34.675Z,14.53
2019-02-09T16:47:04.864Z,10.33
2019-02-09T16:49:35.526Z,21.33
2019-02-09T16:52:05.398Z,10.33
2019-02-09T16:54:35.042Z,10.60
2019-02-09T16:57:05.016Z,18.67
2019-02-09T16:59:34.682Z,12.03
2019-02-09T17:02:05.065Z,11.53
2019-02-09T17:04:34.714Z,9.60
2019-02-09T17:07:04.966Z,11.20
2019-02-09T17:09:34.695Z,16.23
2019-02-09T17:12:05.213Z,14.10
2019-02-09T17:14:34.886Z,17.73
2019-02-09T17:17:05.034Z,17.47
2019-02-09T17:19:34.693Z,13.27
2019-02-09T17:22:05.214Z,9.93
2019-02-09T17:24:34.834Z,14.17
2019-02-09T17:27:05.000Z,11.83
2019-02-09T17:29:34.675Z,16.63
2019-02-09T17:32:04.854Z,25.17
2019-02-09T17:34:40.849Z,16.40
2019-02-09T17:37:06.001Z,11.23
2019-02-09T17:39:35.654Z,9.50
2019-02-09T17:42:05.625Z,12.20
2019-02-09T17:44:35.283Z,14.47
2019-02-09T17:47:05.085Z,13.77
2019-02-09T17:49:34.805Z,14.30
2019-02-09T17:52:04.937Z,13.60
2019-02-09T17:54:34.566Z,8.33
2019-02-09T17:57:05.053Z,10.03
2019-02-09T17:59:34.674Z,10.17
2019-02-09T18:02:05.038Z,12.37
2019-02-09T18:04:34.773Z,9.80
2019-02-09T18:07:05.067Z,13.43
2019-02-09T18:09:34.812Z,9.80
2019-02-09T18:12:05.241Z,13.00
2019-02-09T18:14:34.989Z,17.40
2019-02-09T18:17:05.250Z,15.33
2019-02-09T18:19:34.937Z,11.43
2019-02-09T18:22:04.998Z,14.83
2019-02-09T18:24:34.656Z,10.33
2019-02-09T18:27:05.010Z,17.53
2019-02-09T18:29:34.686Z,19.43
2019-02-09T18:32:05.216Z,12.17
2019-02-09T18:34:34.922Z,20.57
2019-02-09T18:37:07.013Z,18.77
2019-02-09T18:39:36.709Z,13.53
2019-02-09T18:42:06.541Z,10.10
2019-02-09T18:44:36.220Z,15.87
2019-02-09T18:47:06.009Z,16.43
2019-02-09T18:49:35.720Z,14.20
2019-02-09T18:52:05.585Z,15.27
2019-02-09T18:54:35.283Z,14.23
2019-02-09T18:57:05.033Z,11.77
2019-02-09T18:59:34.708Z,14.80
2019-02-09T19:02:05.242Z,15.73
2019-02-09T19:04:34.918Z,17.87
2019-02-09T19:07:05.364Z,18.23
2019-02-09T19:09:35.055Z,24.03
2019-02-09T19:12:05.004Z,17.07
2019-02-09T19:14:34.657Z,13.70
2019-02-09T19:17:04.876Z,16.67
2019-02-09T19:19:35.582Z,14.43
2019-02-09T19:22:05.798Z,19.53
2019-02-09T19:24:35.677Z,19.57
2019-02-09T19:27:05.565Z,9.30
2019-02-09T19:29:35.162Z,14.07
2019-02-09T19:32:04.870Z,27.47
2019-02-09T19:34:34.490Z,13.30
2019-02-09T19:37:05.138Z,18.93
2019-02-09T19:39:34.856Z,13.03
2019-02-09T19:42:05.140Z,16.07
2019-02-09T19:44:34.756Z,18.70
2019-02-09T19:47:05.155Z,22.63
2019-02-09T19:49:34.789Z,19.47
2019-02-09T19:52:04.982Z,18.73
2019-02-09T19:54:34.629Z,16.17
2019-02-09T19:57:04.945Z,23.43
2019-02-09T19:59:34.587Z,18.13
2019-02-09T20:02:05.389Z,19.50
2019-02-09T20:04:35.120Z,16.37
2019-02-09T20:07:05.139Z,16.63
2019-02-09T20:09:34.925Z,19.90
2019-02-09T20:12:04.969Z,23.50
2019-02-09T20:14:34.679Z,15.57
2019-02-09T20:17:04.953Z,17.87
2019-02-09T20:19:34.651Z,20.90
2019-02-09T20:22:05.218Z,16.80
2019-02-09T20:24:35.012Z,18.63
2019-02-09T20:27:04.908Z,13.43
2019-02-09T20:29:35.517Z,14.53
2019-02-09T20:32:05.389Z,11.97
2019-02-09T20:34:35.107Z,19.63
2019-02-09T20:37:05.069Z,18.47
2019-02-09T20:39:34.776Z,15.73
2019-02-09T20:42:05.014Z,20.57
2019-02-09T20:44:34.693Z,15.87
2019-02-09T20:47:05.089Z,13.67
2019-02-09T20:49:34.725Z,16.53
2019-02-09T20:52:05.133Z,15.53
2019-02-09T20:54:34.824Z,15.97
2019-02-09T20:57:05.066Z,13.63
2019-02-09T20:59:34.685Z,18.37
2019-02-09T21:02:05.897Z,13.60
2019-02-09T21:04:35.641Z,17.00
2019-02-09T21:07:05.406Z,20.13
2019-02-09T21:09:35.091Z,19.07
2019-02-09T21:12:05.089Z,15.83
2019-02-09T21:14:34.979Z,15.93
2019-02-09T21:17:04.898Z,20.27
2019-02-09T21:19:34.525Z,14.57
2019-02-09T21:22:05.249Z,17.43
2019-02-09T21:24:35.039Z,15.10
2019-02-09T21:27:05.302Z,16.63
2019-02-09T21:29:35.235Z,10.67
2019-02-09T21:32:05.333Z,18.17
2019-02-09T21:34:34.937Z,18.07
2019-02-09T21:37:04.977Z,15.27
2019-02-09T21:39:34.672Z,11.43
2019-02-09T21:42:04.997Z,25.70
2019-02-09T21:44:34.694Z,16.07
2019-02-09T21:47:04.953Z,17.20
2019-02-09T21:49:34.631Z,15.90
2019-02-09T21:52:04.969Z,14.20
2019-02-09T21:54:34.661Z,10.23
2019-02-09T21:57:05.022Z,13.10
2019-02-09T21:59:34.665Z,17.03
2019-02-09T22:02:05.083Z,14.43
2019-02-09T22:04:34.816Z,17.00
2019-02-09T22:07:04.969Z,13.80
2019-02-09T22:09:34.650Z,16.83
2019-02-09T22:12:05.057Z,20.77
2019-02-09T22:14:35.015Z,14.03
2019-02-09T22:17:05.076Z,11.60
2019-02-09T22:19:34.797Z,17.47
2019-02-09T22:22:05.101Z,21.80
2019-02-09T22:24:34.902Z,10.40
2019-02-09T22:27:05.011Z,17.30
2019-02-09T22:29:34.773Z,15.50
2019-02-09T22:32:05.266Z,15.80
2019-02-09T22:34:35.037Z,16.43
2019-02-09T22:37:04.814Z,7.87
2019-02-09T22:39:34.471Z,15.10
2019-02-09T22:42:05.070Z,14.17
2019-02-09T22:44:34.679Z,10.50
2019-02-09T22:47:04.960Z,20.37
2019-02-09T22:49:34.645Z,21.50
2019-02-09T22:52:04.889Z,17.47
2019-02-09T22:54:34.537Z,12.70
2019-02-09T22:57:05.089Z,14.47
2019-02-09T22:59:34.722Z,15.80
2019-02-09T23:02:06.173Z,16.43
2019-02-09T23:05:36.191Z,15.37
2019-02-09T23:08:06.765Z,19.80
2019-02-09T23:10:36.390Z,19.93
2019-02-09T23:13:06.156Z,23.83
2019-02-09T23:15:35.914Z,17.43
2019-02-09T23:18:05.800Z,11.83
2019-02-09T23:20:35.483Z,17.70
2019-02-09T23:23:05.258Z,18.63
2019-02-09T23:25:35.023Z,17.80
2019-02-09T23:28:05.865Z,21.50
2019-02-09T23:30:35.682Z,18.37
2019-02-09T23:33:05.441Z,16.17
2019-02-09T23:35:35.169Z,17.37
2019-02-09T23:38:05.076Z,17.67
2019-02-09T23:40:34.898Z,12.73
2019-02-09T23:43:05.170Z,22.53
2019-02-09T23:45:34.832Z,16.00
2019-02-09T23:48:04.974Z,21.67
2019-02-09T23:50:34.733Z,16.93
2019-02-09T23:53:05.016Z,13.70
2019-02-09T23:55:34.770Z,17.90
2019-02-09T23:58:04.901Z,24.00
